ADDS TAF Board (Experimental) INFO Settings
IDs: Format: Expanded Condensed

KDEN - Denver Intl, CO, US

Issued at 2342 UTC 24 Jul 2016
Updated at 0014 UTC 25 Jul 2016
Time2353Z 25/01Z 25/02Z 25/03Z 25/04Z 25/05Z 25/06Z 25/07Z 25/08Z 25/09Z 25/10Z 25/11Z 25/12Z 25/13Z
Type OBS PRVL PRVL PRVL PRVL PRVL PRVL PRVL PRVL PRVL PRVL PRVL PRVL PRVL
VIS 10 >6 >6 >6 >6 >6 >6 >6 >6 >6 >6 >6 >6 >6
CIG 150 140 140 140 140 140 140 140 -- -- -- -- -- --
Cover BKN BKN BKN BKN BKN BKN BKN BKN SCT SCT SCT SCT SCT SCT
FltCat VFR VFR VFR VFR VFR VFR VFR VFR VFR VFR VFR VFR VFR VFR
WX -- VCTS VCTS -- -- -- -- -- -- -- -- -- -- --
WDir 70 80 80 150 150 150 150 150 180 180 180 180 180 180
WSpd 20 15 15 12 12 12 12 12 8 8 8 8 8 8
WGst 28 -- -- -- -- -- -- -- -- -- -- -- -- --
R07/25
XWnd 7 3 3 -10 -10 -10 -10 -10 -8 -8 -8 -8 -8 -8
XGst 10 -- -- -- -- -- -- -- -- -- -- -- -- --
HWnd 19 15 15 6 6 6 6 6 0 0 0 0 0 0
HGst 26 -- -- -- -- -- -- -- -- -- -- -- -- --
R08/26
XWnd 7 3 3 -10 -10 -10 -10 -10 -8 -8 -8 -8 -8 -8
XGst 10 -- -- -- -- -- -- -- -- -- -- -- -- --
HWnd 19 15 15 6 6 6 6 6 0 0 0 0 0 0
HGst 26 -- -- -- -- -- -- -- -- -- -- -- -- --
R16/34
XWnd 19 15 15 6 6 6 6 6 0 0 0 0 0 0
XGst 26 -- -- -- -- -- -- -- -- -- -- -- -- --
HWnd -7 -3 -3 10 10 10 10 10 8 8 8 8 8 8
HGst -10 -- -- -- -- -- -- -- -- -- -- -- -- --
R17/35
XWnd 19 15 15 6 6 6 6 6 0 0 0 0 0 0
XGst 26 -- -- -- -- -- -- -- -- -- -- -- -- --
HWnd -7 -3 -3 10 10 10 10 10 8 8 8 8 8 8
HGst -10 -- -- -- -- -- -- -- -- -- -- -- -- --

Raw TAF
KDEN 242342Z 2500/2606 08015KT P6SM VCTS SCT090CB BKN140
  FM250300 15012KT P6SM FEW090 BKN140
  FM250800 18008KT P6SM SCT140
  FM251800 12010KT P6SM SCT100
  FM252300 15012G20KT P6SM SCT080 BKN140


Raw METAR
KDEN 242353Z 07020G28KT 10SM FEW110 BKN150 BKN220 23/08 A3014 RMK AO2 PK WND 01043/2306 WSHFT 2240 TSE48 SLP131 CONS LTGICCG DSNT NE TS DSIPT CB DSNT NE MOV NE 60000 T02280083 10356 20194 53010 $
KDEN 242257Z 01021G43KT 10SM TS FEW015 SCT090CB BKN130 BKN220 26/11 A3012 RMK AO2 PK WND 02034/2255 WSHFT 2240 CONS LTGICCG VC N TS VC N MOV E TCU VC W T02610111 $
KDEN 242253Z 01029G51KT 9SM TS FEW015 SCT090CB BKN130 BKN220 26/11 A3012 RMK AO2 PK WND 34064/2240 WSHFT 2227 RAB42E52 TSB33 PRESRR SLP116 CONS LTGICCG VC N TS VC N MOV E TCU DSNT W P0000 T02610106 $
KDEN 242241Z 34047G64KT 6SM TS BLDU SQ FEW090CB BKN130 BKN220 31/12 A3010 RMK AO2 PK WND 34064/2240 WSHFT 2227 TSB33 CONS LTGICCG VC N TS VC N MOV E T03110122 $
KDEN 242237Z 30020G30KT 10SM TS FEW090CB BKN130 BKN220 34/08 A3007 RMK AO2 PK WND 31030/2237 TSB33 CONS LTGICCG VC N TS VC N MOV E VIS W-N 3 BLDU W-N T03390083
KDEN 242153Z 26015KT 10SM SCT090 BKN130 BKN220 36/02 A3010 RMK AO2 WSHFT 2136 SLP094 FRQ LTGICCG DSNT SE CB DSNT SE MOV E T03560022

METAR Board
Radar Display
Forecast Discussion

TAF Board Legend

Potential Impact
Threat None Slight Moderate High
Visibility (sm) ≥5.1 5.1>X≥3 3>X≥1 <1
Ceiling (100 ft) ≥30.1 30.1>X≥10 10>X≥5 <5
Wind Speed (kt) <10 10≤X<20 20≤X<30 ≥30
Wind Gust (kt) <15 15≤X<25 25≤X<35 ≥35
Weather No Wx Reported VCTS,-TS,-FZRA,SN TS,FZRA +TS,+FZRA,+SN